createdAt,value
2023-06-22T07:12:46.521Z,35.60
2023-06-22T07:15:14.886Z,28.58
2023-06-22T07:17:42.544Z,29.10
2023-06-22T07:20:11.690Z,31.77
2023-06-22T07:22:40.369Z,28.83
2023-06-22T07:25:11.746Z,26.00
2023-06-22T07:27:58.708Z,26.95
2023-06-22T07:30:32.847Z,23.10
2023-06-22T07:33:42.889Z,23.95
2023-06-22T07:36:10.077Z,23.27
2023-06-22T07:38:37.245Z,26.02
2023-06-22T07:41:06.795Z,22.23
2023-06-22T07:43:35.715Z,23.58
2023-06-22T07:46:03.108Z,20.65
2023-06-22T07:48:30.641Z,23.03
2023-06-22T07:50:57.851Z,18.17
2023-06-22T07:53:25.135Z,24.23
2023-06-22T07:55:52.361Z,21.23
2023-06-22T07:58:20.465Z,17.95
2023-06-22T08:00:47.915Z,15.57
2023-06-22T08:03:15.049Z,18.77
2023-06-22T08:05:42.285Z,22.48
2023-06-22T08:08:09.365Z,17.70
2023-06-22T08:10:37.450Z,19.20
2023-06-22T08:13:04.554Z,19.30
2023-06-22T08:15:31.926Z,18.33
2023-06-22T08:18:00.356Z,17.33
2023-06-22T08:20:27.807Z,18.75
2023-06-22T08:22:56.829Z,17.60
2023-06-22T08:25:23.817Z,20.70
2023-06-22T08:27:50.991Z,23.20
2023-06-22T08:30:19.881Z,21.58
2023-06-22T08:32:46.913Z,19.55
2023-06-22T08:35:14.087Z,17.85
2023-06-22T08:37:41.246Z,18.00
2023-06-22T08:40:11.177Z,14.95
2023-06-22T08:42:39.441Z,17.30
2023-06-22T08:45:07.193Z,18.77
2023-06-22T08:47:34.767Z,17.83
2023-06-22T08:50:04.553Z,15.07
2023-06-22T08:52:31.872Z,14.98
2023-06-22T08:55:02.230Z,15.68
2023-06-22T08:57:30.337Z,14.98
2023-06-22T08:59:59.918Z,14.50
2023-06-22T09:02:32.228Z,15.43
2023-06-22T09:04:59.996Z,13.57
2023-06-22T09:07:27.398Z,12.77
2023-06-22T09:09:54.685Z,13.70
2023-06-22T09:12:24.260Z,14.50
2023-06-22T09:14:51.360Z,13.00
2023-06-22T09:17:21.013Z,13.43
2023-06-22T09:19:48.857Z,10.38
2023-06-22T09:22:16.200Z,19.52
2023-06-22T09:24:43.426Z,15.63
2023-06-22T09:27:10.603Z,14.67
2023-06-22T09:29:37.701Z,15.45
2023-06-22T09:32:05.201Z,14.65
2023-06-22T09:34:32.762Z,12.63
2023-06-22T09:37:01.964Z,14.60
2023-06-22T09:39:29.123Z,12.40
2023-06-22T09:41:56.228Z,14.75
2023-06-22T09:44:23.342Z,13.10
2023-06-22T09:46:50.406Z,12.38
2023-06-22T09:49:17.525Z,13.63
2023-06-22T09:51:44.667Z,13.17
2023-06-22T09:54:11.692Z,11.15
2023-06-22T09:56:38.948Z,14.80
2023-06-22T09:59:17.981Z,15.13
2023-06-22T10:01:46.117Z,13.05
2023-06-22T10:04:13.546Z,14.07
2023-06-22T10:06:41.989Z,12.63
2023-06-22T10:09:09.508Z,11.43
2023-06-22T10:11:36.937Z,12.73
2023-06-22T10:14:05.444Z,12.57
2023-06-22T10:16:33.434Z,10.27
